Time;durP1;ratioP1;P1;durP2;ratioP2;P2;SDS_P1;SDS_P2;PMS_P1;PMS_P2;Temp;Humidity;BMP_temperature;BMP_pressure;BME280_temperature;BME280_humidity;BME280_pressure;Samples;Min_cycle;Max_cycle;Signal;HPM_P1;HPM_P2
2023/05/30 00:01:26;;;;;;;;;;;;;;;19.64;64.95;100291.25;5069742;28;19912;-61
2023/05/30 00:03:51;;;;;;;;;;;;;;;19.63;65.88;100289.50;5070868;28;19916;-61
2023/05/30 00:06:17;;;;;;;;;;;;;;;19.57;65.29;100292.63;5071603;28;19916;-62
2023/05/30 00:08:43;;;;;;;;;;;;;;;19.58;65.55;100291.66;5052992;28;19924;-61
2023/05/30 00:11:09;;;;;;;;;;;;;;;19.53;65.34;100294.66;5055401;28;20380;-62
2023/05/30 00:13:34;;;;;;;;;;;;;;;19.44;65.41;100294.34;5064752;28;19912;-62
2023/05/30 00:16:01;;;;;;;;;;;;;;;19.40;65.90;100287.44;5065296;28;20277;-61
2023/05/30 00:18:34;;;;;;;;;;;;;;;19.40;66.02;100300.94;5070526;28;19916;-62
2023/05/30 00:21:03;;;;;;;;;;;;;;;19.32;66.25;100293.31;5071284;28;20291;-62
2023/05/30 00:23:29;;;;;;;;;;;;;;;19.31;65.87;100298.81;5062901;28;19912;-62
2023/05/30 00:25:56;;;;;;;;;;;;;;;19.26;66.47;100300.91;5070970;28;19923;-62
2023/05/30 00:28:21;;;;;;;;;;;;;;;19.14;66.81;100301.69;5058657;28;19920;-62
2023/05/30 00:30:47;;;;;;;;;;;;;;;19.09;66.44;100296.56;5068610;28;20320;-61
2023/05/30 00:33:12;;;;;;;;;;;;;;;19.13;66.88;100305.34;5070891;28;19916;-61
2023/05/30 00:35:38;;;;;;;;;;;;;;;19.06;66.88;100302.16;5070483;28;19924;-62
2023/05/30 00:38:03;;;;;;;;;;;;;;;19.04;66.75;100305.94;5071087;28;19939;-63
2023/05/30 00:40:28;;;;;;;;;;;;;;;18.95;66.82;100315.44;5070160;28;19919;-62
2023/05/30 00:42:53;;;;;;;;;;;;;;;18.93;66.96;100320.06;5070756;28;19962;-62
2023/05/30 00:45:19;;;;;;;;;;;;;;;18.88;66.92;100321.31;5059737;28;20269;-62
2023/05/30 00:47:45;;;;;;;;;;;;;;;18.89;67.28;100317.66;5056007;28;19916;-62
2023/05/30 00:50:11;;;;;;;;;;;;;;;18.88;67.37;100318.63;5069862;28;19908;-63
2023/05/30 00:52:36;;;;;;;;;;;;;;;18.82;66.93;100310.91;5071070;28;19920;-63
2023/05/30 00:55:03;;;;;;;;;;;;;;;18.73;67.47;100327.66;5068949;28;19967;-62
2023/05/30 00:57:34;;;;;;;;;;;;;;;18.69;67.51;100320.69;5069319;28;19968;-64
2023/05/30 01:00:01;;;;;;;;;;;;;;;18.68;67.87;100327.91;5069873;28;19917;-63
2023/05/30 01:02:27;;;;;;;;;;;;;;;18.68;67.90;100327.06;5057969;28;19924;-62
2023/05/30 01:04:52;;;;;;;;;;;;;;;18.69;67.92;100320.69;5051023;28;19920;-63
2023/05/30 01:07:17;;;;;;;;;;;;;;;18.64;67.71;100317.41;5068655;28;20431;-62
2023/05/30 01:09:42;;;;;;;;;;;;;;;18.58;68.13;100324.06;5070548;28;19917;-62
2023/05/30 01:12:08;;;;;;;;;;;;;;;18.52;68.19;100323.56;5062393;28;19913;-62
2023/05/30 01:14:45;;;;;;;;;;;;;;;18.54;68.28;100321.63;5069672;28;19919;-63
2023/05/30 01:17:18;;;;;;;;;;;;;;;18.52;68.07;100318.19;5070171;28;19912;-63
2023/05/30 01:19:54;;;;;;;;;;;;;;;18.40;68.72;100322.47;5070478;28;19912;-63
2023/05/30 01:22:38;;;;;;;;;;;;;;;18.35;68.93;100316.47;5069212;28;19922;-64
2023/05/30 01:25:14;;;;;;;;;;;;;;;18.29;69.24;100320.38;5070179;28;19912;-64
2023/05/30 01:27:51;;;;;;;;;;;;;;;18.23;69.50;100315.34;5053233;28;19917;-63
2023/05/30 01:30:18;;;;;;;;;;;;;;;18.19;69.54;100311.09;5050211;28;19909;-63
2023/05/30 01:32:44;;;;;;;;;;;;;;;18.17;69.79;100321.09;5066898;28;19913;-63
2023/05/30 01:35:30;;;;;;;;;;;;;;;18.09;70.29;100315.28;5070132;28;20384;-63
2023/05/30 01:37:55;;;;;;;;;;;;;;;18.04;70.83;100317.38;5067976;28;19961;-63
2023/05/30 01:40:22;;;;;;;;;;;;;;;17.96;70.74;100318.78;5069828;28;19916;-63
2023/05/30 01:42:51;;;;;;;;;;;;;;;17.96;71.24;100313.38;5069342;28;19962;-64
2023/05/30 01:45:20;;;;;;;;;;;;;;;17.94;71.78;100320.72;5070417;28;19912;-63
2023/05/30 01:47:59;;;;;;;;;;;;;;;17.90;71.57;100313.75;5070198;28;20381;-63
2023/05/30 01:50:28;;;;;;;;;;;;;;;17.90;71.65;100311.94;5068960;28;19939;-63
2023/05/30 01:52:58;;;;;;;;;;;;;;;17.85;71.78;100310.47;5069409;28;19986;-63
2023/05/30 01:55:24;;;;;;;;;;;;;;;17.82;72.14;100310.63;5068944;28;19959;-63
2023/05/30 01:57:50;;;;;;;;;;;;;;;17.80;72.32;100308.03;5067784;28;19950;-64
2023/05/30 02:00:15;;;;;;;;;;;;;;;17.78;72.64;100315.31;5068781;28;19958;-64
2023/05/30 02:02:44;;;;;;;;;;;;;;;17.75;72.71;100303.88;5068979;28;19912;-64
2023/05/30 02:05:10;;;;;;;;;;;;;;;17.74;72.51;100308.38;5066756;28;20408;-63
2023/05/30 02:07:35;;;;;;;;;;;;;;;17.73;72.84;100309.34;5066660;28;19920;-64
2023/05/30 02:10:01;;;;;;;;;;;;;;;17.74;72.74;100315.59;5070729;28;19950;-64
2023/05/30 02:12:26;;;;;;;;;;;;;;;17.68;73.34;100313.22;5053265;28;19919;-65
2023/05/30 02:14:54;;;;;;;;;;;;;;;17.55;73.68;100313.06;5070722;28;19909;-63
2023/05/30 02:17:22;;;;;;;;;;;;;;;17.52;73.56;100315.94;5071923;28;19919;-64
2023/05/30 02:19:48;;;;;;;;;;;;;;;17.49;74.28;100315.25;5073098;28;19939;-64
2023/05/30 02:22:13;;;;;;;;;;;;;;;17.47;74.07;100315.31;5072693;28;19935;-65
2023/05/30 02:24:38;;;;;;;;;;;;;;;17.40;73.74;100313.88;5073145;28;20008;-64
2023/05/30 02:27:04;;;;;;;;;;;;;;;17.42;74.22;100317.38;5073654;28;19999;-65
2023/05/30 02:29:29;;;;;;;;;;;;;;;17.39;74.30;100312.16;5073247;28;19925;-65
2023/05/30 02:31:54;;;;;;;;;;;;;;;17.35;73.97;100310.59;5072821;28;19916;-65
2023/05/30 02:34:19;;;;;;;;;;;;;;;17.32;73.71;100310.75;5071942;28;19919;-65
2023/05/30 02:36:45;;;;;;;;;;;;;;;17.39;73.51;100312.16;5073152;28;19909;-65
2023/05/30 02:39:10;;;;;;;;;;;;;;;17.33;72.50;100306.25;5073005;28;19990;-66
2023/05/30 02:41:37;;;;;;;;;;;;;;;17.42;72.54;100306.59;5071338;28;19913;-66
2023/05/30 02:44:03;;;;;;;;;;;;;;;17.43;72.12;100313.72;5072281;28;19913;-65
2023/05/30 02:46:28;;;;;;;;;;;;;;;17.43;72.00;100321.78;5073061;28;19919;-65
2023/05/30 02:48:54;;;;;;;;;;;;;;;17.32;71.71;100316.13;5071871;28;19916;-66
2023/05/30 02:51:19;;;;;;;;;;;;;;;17.27;72.24;100310.16;5058897;28;20033;-65
2023/05/30 02:53:45;;;;;;;;;;;;;;;17.27;71.42;100315.53;5067749;28;19955;-66
2023/05/30 02:56:10;;;;;;;;;;;;;;;17.27;71.38;100312.84;5071829;28;19938;-66
2023/05/30 02:58:36;;;;;;;;;;;;;;;17.29;71.33;100310.06;5071877;28;19912;-66
2023/05/30 03:01:02;;;;;;;;;;;;;;;17.25;71.13;100320.09;5072007;28;19998;-65
2023/05/30 03:03:28;;;;;;;;;;;;;;;17.26;71.01;100319.19;5071133;28;20016;-65
2023/05/30 03:05:53;;;;;;;;;;;;;;;17.24;70.74;100320.19;5071637;28;19908;-66
2023/05/30 03:08:19;;;;;;;;;;;;;;;17.22;70.33;100325.66;5068521;28;19920;-65
2023/05/30 03:10:44;;;;;;;;;;;;;;;17.29;70.79;100321.69;5069977;28;19984;-65
2023/05/30 03:13:10;;;;;;;;;;;;;;;17.28;70.32;100317.25;5055362;28;19912;-65
2023/05/30 03:15:35;;;;;;;;;;;;;;;17.21;70.11;100310.50;5071803;28;19963;-66
2023/05/30 03:18:00;;;;;;;;;;;;;;;17.18;70.08;100318.72;5067257;28;19943;-65
2023/05/30 03:20:26;;;;;;;;;;;;;;;17.13;70.63;100319.94;5072458;28;19915;-66
2023/05/30 03:22:51;;;;;;;;;;;;;;;17.19;70.78;100322.28;5071649;28;19955;-65
2023/05/30 03:25:17;;;;;;;;;;;;;;;17.18;70.77;100328.59;5072528;28;19935;-66
2023/05/30 03:27:45;;;;;;;;;;;;;;;17.17;70.63;100327.72;5072595;28;19912;-66
2023/05/30 03:30:11;;;;;;;;;;;;;;;17.15;71.32;100332.31;5072340;28;19916;-64
2023/05/30 03:32:36;;;;;;;;;;;;;;;17.09;71.68;100329.97;5071490;28;19919;-64
2023/05/30 03:35:01;;;;;;;;;;;;;;;17.08;71.97;100333.63;5072437;28;19916;-65
2023/05/30 03:37:27;;;;;;;;;;;;;;;17.06;72.04;100330.16;5071887;28;20276;-64
2023/05/30 03:39:52;;;;;;;;;;;;;;;17.08;72.19;100328.25;5071750;28;19916;-64
2023/05/30 03:42:17;;;;;;;;;;;;;;;17.08;71.60;100333.63;5069880;28;20011;-65
2023/05/30 03:44:42;;;;;;;;;;;;;;;17.02;72.07;100331.25;5069167;28;20374;-64
2023/05/30 03:47:08;;;;;;;;;;;;;;;17.00;71.78;100334.00;5067749;28;20011;-64
2023/05/30 03:49:33;;;;;;;;;;;;;;;16.93;71.65;100329.06;5070674;28;19917;-65
2023/05/30 03:51:58;;;;;;;;;;;;;;;16.92;72.25;100327.31;5070007;28;19927;-64
2023/05/30 03:54:23;;;;;;;;;;;;;;;16.91;71.87;100328.28;5071546;28;20355;-65
2023/05/30 03:56:49;;;;;;;;;;;;;;;16.89;72.39;100322.09;5070848;28;19915;-64
2023/05/30 03:59:15;;;;;;;;;;;;;;;16.92;72.15;100327.31;5071613;28;20399;-65
2023/05/30 04:01:40;;;;;;;;;;;;;;;16.92;71.74;100338.06;5072001;28;20014;-66
2023/05/30 04:04:05;;;;;;;;;;;;;;;16.93;71.85;100329.91;5070903;28;20026;-65
2023/05/30 04:06:30;;;;;;;;;;;;;;;16.91;70.79;100342.59;5070547;28;19917;-64
2023/05/30 04:08:56;;;;;;;;;;;;;;;16.83;71.09;100343.94;5071549;28;19916;-66
2023/05/30 04:11:21;;;;;;;;;;;;;;;16.77;70.65;100345.13;5071552;28;19962;-65
2023/05/30 04:13:46;;;;;;;;;;;;;;;16.81;70.59;100344.03;5062522;28;19916;-64
2023/05/30 04:16:12;;;;;;;;;;;;;;;16.83;70.34;100347.50;5060824;28;19916;-64
2023/05/30 04:18:43;;;;;;;;;;;;;;;16.83;69.03;100349.31;5050422;28;20527;-65
2023/05/30 04:21:09;;;;;;;;;;;;;;;16.89;68.53;100354.34;5063494;28;20039;-64
2023/05/30 04:23:35;;;;;;;;;;;;;;;16.91;68.34;100357.84;5050298;28;20413;-64
2023/05/30 04:26:00;;;;;;;;;;;;;;;16.95;67.92;100359.41;5057183;28;19916;-64
2023/05/30 04:28:27;;;;;;;;;;;;;;;16.96;67.84;100350.41;5071059;28;19912;-65
2023/05/30 04:30:54;;;;;;;;;;;;;;;16.95;67.55;100359.41;5068910;28;19924;-64
2023/05/30 04:33:19;;;;;;;;;;;;;;;16.92;66.74;100357.75;5072241;28;19916;-63
2023/05/30 04:35:45;;;;;;;;;;;;;;;16.99;66.42;100355.59;5050259;28;20314;-63
2023/05/30 04:38:10;;;;;;;;;;;;;;;17.01;66.54;100359.09;5057447;28;19922;-64
2023/05/30 04:40:36;;;;;;;;;;;;;;;17.09;66.47;100368.47;5064978;28;19995;-63
2023/05/30 04:43:02;;;;;;;;;;;;;;;17.04;66.51;100380.41;5069595;28;20268;-63
2023/05/30 04:45:29;;;;;;;;;;;;;;;17.14;66.51;100378.97;5061668;28;20729;-63
2023/05/30 04:47:55;;;;;;;;;;;;;;;17.13;66.26;100370.03;5069575;28;19917;-62
2023/05/30 04:50:20;;;;;;;;;;;;;;;17.19;66.03;100373.34;5051349;28;19924;-63
2023/05/30 04:52:46;;;;;;;;;;;;;;;17.12;65.60;100380.88;5049482;28;19913;-64
2023/05/30 04:55:12;;;;;;;;;;;;;;;17.23;66.22;100385.69;5057053;28;20535;-64
2023/05/30 04:57:38;;;;;;;;;;;;;;;17.27;65.94;100388.13;5054358;28;20132;-63
2023/05/30 05:00:05;;;;;;;;;;;;;;;17.20;65.85;100381.31;5066874;28;19913;-62
2023/05/30 05:02:30;;;;;;;;;;;;;;;17.30;65.65;100384.41;5069712;28;19959;-63
2023/05/30 05:04:55;;;;;;;;;;;;;;;17.34;65.62;100378.78;5069795;28;20344;-63
2023/05/30 05:07:20;;;;;;;;;;;;;;;17.31;65.21;100392.41;5050899;28;19912;-62
2023/05/30 05:09:46;;;;;;;;;;;;;;;17.21;65.14;100384.91;5060858;28;20367;-64
2023/05/30 05:12:13;;;;;;;;;;;;;;;17.20;66.05;100392.06;5069582;28;20342;-64
2023/05/30 05:14:40;;;;;;;;;;;;;;;17.21;66.14;100399.22;5070012;28;19924;-64
2023/05/30 05:17:06;;;;;;;;;;;;;;;17.18;66.06;100385.94;5070180;28;19908;-62
2023/05/30 05:19:31;;;;;;;;;;;;;;;17.33;65.66;100390.47;5066839;28;19999;-62
2023/05/30 05:21:56;;;;;;;;;;;;;;;17.40;65.22;100394.56;5069583;28;19924;-63
2023/05/30 05:24:21;;;;;;;;;;;;;;;17.45;65.43;100400.59;5070648;28;19958;-63
2023/05/30 05:26:47;;;;;;;;;;;;;;;17.62;65.24;100389.78;5069510;28;20716;-62
2023/05/30 05:29:12;;;;;;;;;;;;;;;17.69;63.91;100396.56;5070459;28;19912;-62
2023/05/30 05:31:37;;;;;;;;;;;;;;;17.64;63.74;100398.66;5054766;28;19920;-62
2023/05/30 05:34:03;;;;;;;;;;;;;;;17.84;63.35;100401.09;5062147;28;20376;-63
2023/05/30 05:36:28;;;;;;;;;;;;;;;17.99;62.96;100399.38;5069964;28;19909;-63
2023/05/30 05:38:53;;;;;;;;;;;;;;;17.96;62.63;100402.22;5070061;28;20425;-63
2023/05/30 05:41:18;;;;;;;;;;;;;;;18.03;61.91;100400.91;5063855;28;20433;-63
2023/05/30 05:43:44;;;;;;;;;;;;;;;18.13;62.15;100411.09;5069399;28;19912;-63
2023/05/30 05:46:11;;;;;;;;;;;;;;;18.10;60.68;100413.09;5049289;28;20006;-62
2023/05/30 05:48:36;;;;;;;;;;;;;;;18.03;60.81;100409.88;5057505;28;19920;-62
2023/05/30 05:51:01;;;;;;;;;;;;;;;18.15;60.03;100417.22;5069513;28;19908;-63
2023/05/30 05:53:26;;;;;;;;;;;;;;;18.14;59.68;100414.63;5055109;28;19913;-63
2023/05/30 05:55:52;;;;;;;;;;;;;;;18.14;59.92;100420.91;5049499;28;20316;-63
2023/05/30 05:58:17;;;;;;;;;;;;;;;18.04;59.76;100416.09;5055249;28;19944;-62
2023/05/30 06:00:42;;;;;;;;;;;;;;;18.04;60.13;100425.06;5049990;28;19912;-62
2023/05/30 06:03:08;;;;;;;;;;;;;;;18.10;60.52;100432.78;5056027;28;19916;-62
2023/05/30 06:05:33;;;;;;;;;;;;;;;18.28;60.78;100418.28;5057179;28;19931;-63
2023/05/30 06:07:58;;;;;;;;;;;;;;;18.50;59.46;100427.84;5069029;28;20378;-62
2023/05/30 06:10:24;;;;;;;;;;;;;;;18.56;58.00;100422.97;5069396;28;19920;-63
2023/05/30 06:12:49;;;;;;;;;;;;;;;18.55;57.98;100421.22;5069096;28;20272;-63
2023/05/30 06:15:15;;;;;;;;;;;;;;;18.57;58.88;100432.78;5066083;28;20011;-62
2023/05/30 06:17:40;;;;;;;;;;;;;;;18.76;58.58;100428.06;5049992;28;19954;-62
2023/05/30 06:20:06;;;;;;;;;;;;;;;18.69;58.80;100433.88;5049786;28;19913;-62
2023/05/30 06:22:31;;;;;;;;;;;;;;;18.76;59.11;100435.25;5069543;28;20280;-62
2023/05/30 06:24:56;;;;;;;;;;;;;;;19.02;58.87;100431.88;5069966;28;19966;-62
2023/05/30 06:27:21;;;;;;;;;;;;;;;18.96;57.23;100418.78;5067116;28;20347;-62
2023/05/30 06:29:47;;;;;;;;;;;;;;;18.95;57.02;100428.69;5049803;28;19912;-62
2023/05/30 06:32:12;;;;;;;;;;;;;;;19.02;56.89;100426.47;5051933;28;20018;-62
2023/05/30 06:34:37;;;;;;;;;;;;;;;19.13;56.48;100424.88;5058888;28;20300;-63
2023/05/30 06:37:03;;;;;;;;;;;;;;;19.29;57.19;100432.94;5063038;28;19912;-63
2023/05/30 06:39:28;;;;;;;;;;;;;;;19.38;56.85;100435.03;5059051;28;20312;-62
2023/05/30 06:41:53;;;;;;;;;;;;;;;19.74;55.87;100432.75;5068425;28;19912;-62
2023/05/30 06:44:19;;;;;;;;;;;;;;;19.70;55.72;100442.00;5065086;28;20556;-62
2023/05/30 06:46:44;;;;;;;;;;;;;;;19.76;55.71;100444.31;5056874;28;19922;-62
2023/05/30 06:49:09;;;;;;;;;;;;;;;19.90;55.47;100443.44;5068138;28;20356;-61
2023/05/30 06:51:36;;;;;;;;;;;;;;;20.09;54.81;100452.09;5066749;28;20003;-62
2023/05/30 06:54:01;;;;;;;;;;;;;;;20.09;54.30;100452.97;5056510;28;20158;-62
2023/05/30 06:56:26;;;;;;;;;;;;;;;20.13;55.03;100448.22;5071924;28;19916;-62
2023/05/30 06:58:51;;;;;;;;;;;;;;;20.36;54.30;100447.63;5070830;28;19912;-61
2023/05/30 07:01:17;;;;;;;;;;;;;;;20.44;54.56;100451.56;5053274;28;20019;-62
2023/05/30 07:03:42;;;;;;;;;;;;;;;20.56;53.59;100445.34;5067271;28;20702;-62
2023/05/30 07:06:07;;;;;;;;;;;;;;;20.50;53.91;100440.34;5052647;28;19927;-62
2023/05/30 07:08:32;;;;;;;;;;;;;;;20.64;53.98;100445.69;5070510;28;20358;-63
2023/05/30 07:10:58;;;;;;;;;;;;;;;20.81;53.55;100456.25;5072122;28;19912;-62
2023/05/30 07:13:23;;;;;;;;;;;;;;;21.03;53.61;100449.41;5072898;28;20303;-62
2023/05/30 07:15:48;;;;;;;;;;;;;;;21.30;52.73;100442.09;5073287;28;19912;-62
2023/05/30 07:18:17;;;;;;;;;;;;;;;21.37;51.13;100454.19;5060875;28;19969;-62
2023/05/30 07:20:42;;;;;;;;;;;;;;;21.45;52.28;100458.13;5072021;28;20425;-63
2023/05/30 07:23:07;;;;;;;;;;;;;;;21.65;51.13;100448.56;5056608;28;19979;-63
2023/05/30 07:25:33;;;;;;;;;;;;;;;21.62;50.76;100449.69;5054393;28;19912;-63
2023/05/30 07:27:58;;;;;;;;;;;;;;;21.95;49.09;100449.13;5067822;28;20003;-63
2023/05/30 07:30:23;;;;;;;;;;;;;;;22.10;48.89;100457.03;5052841;28;20356;-63
2023/05/30 07:32:49;;;;;;;;;;;;;;;22.15;49.32;100443.13;5052796;28;19913;-63
2023/05/30 07:35:15;;;;;;;;;;;;;;;22.39;48.60;100452.16;5057423;28;19962;-63
2023/05/30 07:37:40;;;;;;;;;;;;;;;22.60;47.84;100452.44;5063283;28;19909;-62
2023/05/30 07:40:05;;;;;;;;;;;;;;;22.66;47.96;100450.13;5070079;28;19916;-63
2023/05/30 07:42:34;;;;;;;;;;;;;;;22.81;47.43;100454.41;5059136;28;20390;-63
2023/05/30 07:45:00;;;;;;;;;;;;;;;23.02;48.00;100450.06;5072441;28;19912;-64
2023/05/30 07:47:25;;;;;;;;;;;;;;;23.23;46.60;100445.66;5071631;28;19924;-63
2023/05/30 07:49:50;;;;;;;;;;;;;;;23.47;46.38;100444.78;5072570;28;20010;-64
2023/05/30 07:52:16;;;;;;;;;;;;;;;23.47;47.17;100433.91;5071516;28;19916;-64
2023/05/30 07:54:41;;;;;;;;;;;;;;;23.49;46.18;100445.53;5072507;28;20368;-64
2023/05/30 07:57:07;;;;;;;;;;;;;;;23.89;46.09;100435.91;5071553;28;20517;-63
2023/05/30 07:59:32;;;;;;;;;;;;;;;24.16;44.97;100439.16;5071113;28;19923;-63
2023/05/30 08:01:57;;;;;;;;;;;;;;;24.07;45.38;100442.63;5071607;28;20031;-64
2023/05/30 08:04:23;;;;;;;;;;;;;;;23.99;44.13;100437.78;5071840;28;19959;-63
2023/05/30 08:06:48;;;;;;;;;;;;;;;23.95;45.30;100449.00;5070520;28;19923;-63
2023/05/30 08:09:13;;;;;;;;;;;;;;;23.88;45.05;100435.06;5071942;28;19978;-62
2023/05/30 08:11:38;;;;;;;;;;;;;;;23.72;44.21;100437.28;5053659;28;19918;-63
2023/05/30 08:14:04;;;;;;;;;;;;;;;23.74;44.81;100434.44;5070247;28;19912;-64
2023/05/30 08:16:29;;;;;;;;;;;;;;;24.08;45.02;100449.78;5071369;28;20002;-63
2023/05/30 08:18:55;;;;;;;;;;;;;;;24.47;45.29;100441.06;5070409;28;19912;-63
2023/05/30 08:21:21;;;;;;;;;;;;;;;24.60;44.46;100437.19;5071962;28;19912;-63
2023/05/30 08:23:46;;;;;;;;;;;;;;;24.81;43.84;100433.72;5071783;28;20447;-64
2023/05/30 08:26:12;;;;;;;;;;;;;;;24.88;43.89;100434.88;5070873;28;19920;-63
2023/05/30 08:28:37;;;;;;;;;;;;;;;25.07;44.12;100438.66;5071701;28;19963;-64
2023/05/30 08:31:03;;;;;;;;;;;;;;;25.33;43.40;100442.72;5070978;28;20014;-63
2023/05/30 08:33:28;;;;;;;;;;;;;;;25.49;42.58;100440.41;5069885;28;20397;-62
2023/05/30 08:35:53;;;;;;;;;;;;;;;25.79;42.00;100448.63;5070426;28;19919;-63
2023/05/30 08:38:19;;;;;;;;;;;;;;;25.70;43.31;100437.69;5068643;28;19923;-63
2023/05/30 08:40:45;;;;;;;;;;;;;;;25.38;42.87;100439.63;5069954;28;19908;-63
2023/05/30 08:43:11;;;;;;;;;;;;;;;25.46;42.53;100443.41;5070277;28;19935;-63
2023/05/30 08:45:36;;;;;;;;;;;;;;;25.43;42.08;100424.63;5070053;28;19916;-63
2023/05/30 08:48:02;;;;;;;;;;;;;;;25.75;42.36;100436.25;5068604;28;20007;-63
2023/05/30 08:50:29;;;;;;;;;;;;;;;25.98;43.09;100433.34;5070693;28;20001;-63
2023/05/30 08:52:56;;;;;;;;;;;;;;;26.06;42.20;100437.16;5070883;28;19946;-63
2023/05/30 08:55:23;;;;;;;;;;;;;;;25.67;42.73;100437.94;5069850;28;19909;-63
2023/05/30 08:57:54;;;;;;;;;;;;;;;25.46;42.97;100424.34;5068872;28;19970;-63
2023/05/30 09:00:20;;;;;;;;;;;;;;;25.45;43.37;100430.78;5069856;28;19980;-63
2023/05/30 09:02:49;;;;;;;;;;;;;;;25.70;41.49;100424.91;5050258;28;19912;-63
2023/05/30 09:05:15;;;;;;;;;;;;;;;26.07;43.63;100427.09;5069507;28;19950;-63
2023/05/30 09:07:42;;;;;;;;;;;;;;;26.43;41.82;100427.34;5070049;28;19958;-63
2023/05/30 09:10:08;;;;;;;;;;;;;;;26.94;40.67;100427.16;5070107;28;19919;-63
2023/05/30 09:12:34;;;;;;;;;;;;;;;27.01;39.70;100425.56;5068790;28;20019;-62
2023/05/30 09:15:00;;;;;;;;;;;;;;;27.00;39.76;100429.31;5069414;28;19916;-63
2023/05/30 09:17:25;;;;;;;;;;;;;;;26.88;39.75;100433.19;5069363;28;19908;-62
2023/05/30 09:19:50;;;;;;;;;;;;;;;27.18;38.30;100433.88;5069302;28;19924;-63
2023/05/30 09:22:16;;;;;;;;;;;;;;;26.95;38.59;100442.53;5068771;28;19912;-63
2023/05/30 09:25:01;;;;;;;;;;;;;;;27.27;39.42;100426.69;5069398;28;20323;-62
2023/05/30 09:27:28;;;;;;;;;;;;;;;27.84;38.55;100434.78;5067878;28;19916;-63
2023/05/30 09:29:53;;;;;;;;;;;;;;;28.22;38.75;100431.91;5055552;28;19909;-63
2023/05/30 09:32:19;;;;;;;;;;;;;;;28.51;38.56;100425.44;5069370;28;20389;-63
2023/05/30 09:34:55;;;;;;;;;;;;;;;28.36;38.51;100428.69;5069212;28;20364;-63
2023/05/30 09:37:21;;;;;;;;;;;;;;;28.45;38.14;100432.38;5068664;28;19916;-62
2023/05/30 09:40:19;;;;;;;;;;;;;;;28.42;36.00;100427.19;5069150;28;19915;-63
2023/05/30 09:42:44;;;;;;;;;;;;;;;28.09;37.66;100431.41;5024193;28;20007;-63
2023/05/30 09:45:10;;;;;;;;;;;;;;;28.36;38.70;100436.91;5068827;28;19988;-63
2023/05/30 09:47:44;;;;;;;;;;;;;;;28.47;37.77;100433.06;5068221;28;19982;-63
2023/05/30 09:50:12;;;;;;;;;;;;;;;28.78;36.26;100433.63;5069406;28;19912;-62
2023/05/30 09:52:37;;;;;;;;;;;;;;;28.76;36.74;100430.19;5067986;28;19922;-61
2023/05/30 09:55:05;;;;;;;;;;;;;;;28.54;35.59;100428.75;5068603;28;19995;-62
2023/05/30 09:57:32;;;;;;;;;;;;;;;28.81;35.65;100441.53;5069073;28;19912;-62
2023/05/30 09:59:57;;;;;;;;;;;;;;;28.93;35.54;100432.06;5068781;28;19959;-63
2023/05/30 10:02:23;;;;;;;;;;;;;;;29.40;36.13;100441.75;5067589;28;19947;-62
2023/05/30 10:04:50;;;;;;;;;;;;;;;29.54;37.23;100439.28;5068894;28;19924;-62
2023/05/30 10:07:16;;;;;;;;;;;;;;;29.80;35.57;100438.47;5049642;28;19916;-62
2023/05/30 10:09:42;;;;;;;;;;;;;;;30.18;35.70;100419.63;5067143;28;19935;-62
2023/05/30 10:12:08;;;;;;;;;;;;;;;30.00;34.29;100427.09;5066491;28;20839;-62
2023/05/30 10:14:34;;;;;;;;;;;;;;;30.08;36.32;100424.41;5065864;28;20276;-62
2023/05/30 10:17:00;;;;;;;;;;;;;;;30.08;33.04;100432.66;5066462;28;19912;-61
2023/05/30 10:19:29;;;;;;;;;;;;;;;30.11;34.37;100423.22;5065594;28;19931;-62
2023/05/30 10:21:55;;;;;;;;;;;;;;;30.05;34.79;100435.69;5067807;28;19955;-62
2023/05/30 10:24:20;;;;;;;;;;;;;;;30.50;34.27;100427.16;5068656;28;20352;-62
2023/05/30 10:26:53;;;;;;;;;;;;;;;30.73;33.31;100429.13;5068880;28;19908;-62
2023/05/30 10:29:21;;;;;;;;;;;;;;;30.83;32.37;100424.38;5070645;28;19921;-61
2023/05/30 10:31:47;;;;;;;;;;;;;;;31.01;33.69;100415.09;5074035;28;19913;-61
2023/05/30 10:34:14;;;;;;;;;;;;;;;31.03;33.01;100413.03;5072444;28;19923;-62
2023/05/30 10:36:43;;;;;;;;;;;;;;;31.06;32.99;100413.56;5073433;28;20364;-61
2023/05/30 10:39:24;;;;;;;;;;;;;;;30.84;32.45;100415.09;5072276;28;19924;-62
2023/05/30 10:42:07;;;;;;;;;;;;;;;30.73;33.49;100411.78;5071098;28;19919;-62
2023/05/30 10:44:33;;;;;;;;;;;;;;;30.40;32.92;100410.84;5063032;28;19924;-61
2023/05/30 10:47:24;;;;;;;;;;;;;;;30.30;33.27;100404.63;5065989;28;19916;-62
2023/05/30 10:49:54;;;;;;;;;;;;;;;30.63;33.58;100408.31;5068208;28;19981;-62
2023/05/30 10:52:29;;;;;;;;;;;;;;;30.92;32.88;100406.84;5071911;28;19912;-62
2023/05/30 10:54:54;;;;;;;;;;;;;;;30.74;32.99;100408.00;5071716;28;20288;-62
2023/05/30 10:57:23;;;;;;;;;;;;;;;31.02;33.47;100400.34;5071997;28;19912;-61
2023/05/30 10:59:49;;;;;;;;;;;;;;;31.38;33.26;100397.09;5070958;28;19916;-61
2023/05/30 11:02:20;;;;;;;;;;;;;;;31.40;31.90;100391.44;5072203;28;20418;-61
2023/05/30 11:04:49;;;;;;;;;;;;;;;31.48;31.75;100399.66;5071388;28;20412;-62
2023/05/30 11:07:16;;;;;;;;;;;;;;;31.42;31.69;100403.09;5072344;28;19919;-62
2023/05/30 11:09:41;;;;;;;;;;;;;;;31.81;31.79;100393.06;5070705;28;19917;-62
2023/05/30 11:12:08;;;;;;;;;;;;;;;32.05;31.20;100391.13;5071757;28;19912;-61
2023/05/30 11:14:35;;;;;;;;;;;;;;;32.06;31.79;100362.53;5063437;28;19913;-63
2023/05/30 11:17:02;;;;;;;;;;;;;;;31.77;31.35;100386.19;5067459;28;20263;-61
2023/05/30 11:19:35;;;;;;;;;;;;;;;31.57;31.53;100380.22;5072765;28;19922;-62
2023/05/30 11:22:01;;;;;;;;;;;;;;;31.58;32.75;100386.59;5070919;28;19912;-62
2023/05/30 11:24:28;;;;;;;;;;;;;;;31.63;31.88;100375.91;5054911;28;19912;-62
2023/05/30 11:27:06;;;;;;;;;;;;;;;31.62;32.89;100374.19;5072061;28;19978;-62
2023/05/30 11:29:36;;;;;;;;;;;;;;;31.97;31.39;100354.50;5072703;28;20303;-62
2023/05/30 11:32:05;;;;;;;;;;;;;;;32.34;31.43;100364.84;5071293;28;19962;-63
2023/05/30 11:34:30;;;;;;;;;;;;;;;32.41;31.49;100363.94;5071141;28;20673;-62
2023/05/30 11:36:56;;;;;;;;;;;;;;;32.00;30.91;100365.16;5072076;28;19959;-62
2023/05/30 11:39:22;;;;;;;;;;;;;;;31.69;31.43;100361.44;5070729;28;20343;-62
2023/05/30 11:41:48;;;;;;;;;;;;;;;31.66;30.50;100361.81;5071899;28;19991;-62
2023/05/30 11:44:13;;;;;;;;;;;;;;;31.68;31.73;100365.25;5071195;28;19917;-62
2023/05/30 11:46:39;;;;;;;;;;;;;;;32.14;31.69;100347.91;5072113;28;19982;-62
2023/05/30 11:49:04;;;;;;;;;;;;;;;31.82;30.22;100345.25;5072515;28;19916;-63
2023/05/30 11:51:30;;;;;;;;;;;;;;;31.95;31.78;100348.31;5072136;28;19916;-62
2023/05/30 11:53:55;;;;;;;;;;;;;;;32.05;30.26;100346.22;5071655;28;19912;-62
2023/05/30 11:56:20;;;;;;;;;;;;;;;32.24;30.21;100334.75;5071932;28;19912;-63
2023/05/30 11:58:49;;;;;;;;;;;;;;;32.11;30.08;100348.22;5071845;28;19919;-63
2023/05/30 12:01:16;;;;;;;;;;;;;;;32.10;29.79;100333.63;5072398;28;19947;-63
2023/05/30 12:03:43;;;;;;;;;;;;;;;32.35;30.59;100333.47;5071124;28;19927;-63
2023/05/30 12:06:12;;;;;;;;;;;;;;;32.73;30.40;100327.94;5070709;28;19916;-62
2023/05/30 12:08:41;;;;;;;;;;;;;;;32.89;30.09;100341.56;5071226;28;20339;-63
2023/05/30 12:11:06;;;;;;;;;;;;;;;33.00;30.04;100337.53;5070986;28;19916;-63
2023/05/30 12:13:31;;;;;;;;;;;;;;;32.95;30.25;100340.84;5071391;28;20383;-62
2023/05/30 12:15:56;;;;;;;;;;;;;;;32.76;30.12;100341.34;5070691;28;19920;-63
2023/05/30 12:18:22;;;;;;;;;;;;;;;32.70;29.18;100335.69;5071409;28;20021;-63
2023/05/30 12:20:48;;;;;;;;;;;;;;;32.76;29.46;100338.56;5071829;28;19965;-63
2023/05/30 12:23:13;;;;;;;;;;;;;;;32.64;30.78;100329.00;5071164;28;19962;-63
2023/05/30 12:25:39;;;;;;;;;;;;;;;32.10;30.19;100324.50;5071235;28;19916;-62
2023/05/30 12:28:04;;;;;;;;;;;;;;;32.40;30.06;100331.06;5071215;28;19939;-62
2023/05/30 12:30:31;;;;;;;;;;;;;;;32.69;29.38;100334.84;5070414;28;20295;-62
2023/05/30 12:33:11;;;;;;;;;;;;;;;32.38;29.69;100331.25;5071970;28;19908;-62